sensor_id;sensor_type;location;lat;lon;timestamp;P1;durP1;ratioP1;P2;durP2;ratioP2
8540;SDS011;4308;51.294;6.590;2023-02-25T00:00:34;13.67;;;4.20;;
8540;SDS011;4308;51.294;6.590;2023-02-25T00:03:02;13.90;;;3.63;;
8540;SDS011;4308;51.294;6.590;2023-02-25T00:05:30;14.63;;;3.87;;
8540;SDS011;4308;51.294;6.590;2023-02-25T00:07:58;16.53;;;4.67;;
8540;SDS011;4308;51.294;6.590;2023-02-25T00:10:26;11.33;;;2.80;;
8540;SDS011;4308;51.294;6.590;2023-02-25T00:12:53;11.10;;;3.17;;
8540;SDS011;4308;51.294;6.590;2023-02-25T00:15:31;13.17;;;3.50;;
8540;SDS011;4308;51.294;6.590;2023-02-25T00:17:59;14.50;;;3.10;;
8540;SDS011;4308;51.294;6.590;2023-02-25T00:20:26;9.67;;;2.27;;
8540;SDS011;4308;51.294;6.590;2023-02-25T00:22:54;7.80;;;2.80;;
8540;SDS011;4308;51.294;6.590;2023-02-25T00:25:21;21.67;;;3.80;;
8540;SDS011;4308;51.294;6.590;2023-02-25T00:27:49;12.00;;;2.80;;
8540;SDS011;4308;51.294;6.590;2023-02-25T00:30:16;10.03;;;2.37;;
8540;SDS011;4308;51.294;6.590;2023-02-25T00:32:44;8.43;;;2.90;;
8540;SDS011;4308;51.294;6.590;2023-02-25T00:35:11;11.03;;;2.77;;
8540;SDS011;4308;51.294;6.590;2023-02-25T00:37:39;10.27;;;3.13;;
8540;SDS011;4308;51.294;6.590;2023-02-25T00:40:07;16.07;;;3.20;;
8540;SDS011;4308;51.294;6.590;2023-02-25T00:42:35;11.27;;;3.03;;
8540;SDS011;4308;51.294;6.590;2023-02-25T00:45:03;9.07;;;2.30;;
8540;SDS011;4308;51.294;6.590;2023-02-25T00:47:30;7.07;;;2.37;;
8540;SDS011;4308;51.294;6.590;2023-02-25T00:49:58;13.90;;;2.97;;
8540;SDS011;4308;51.294;6.590;2023-02-25T00:52:25;8.47;;;2.83;;
8540;SDS011;4308;51.294;6.590;2023-02-25T00:54:53;8.70;;;2.13;;
8540;SDS011;4308;51.294;6.590;2023-02-25T00:57:20;13.37;;;2.40;;
8540;SDS011;4308;51.294;6.590;2023-02-25T00:59:48;14.80;;;3.20;;
8540;SDS011;4308;51.294;6.590;2023-02-25T01:02:16;20.10;;;3.70;;
8540;SDS011;4308;51.294;6.590;2023-02-25T01:04:43;9.03;;;2.20;;
8540;SDS011;4308;51.294;6.590;2023-02-25T01:07:11;12.30;;;2.87;;
8540;SDS011;4308;51.294;6.590;2023-02-25T01:09:39;17.07;;;4.40;;
8540;SDS011;4308;51.294;6.590;2023-02-25T01:12:06;9.83;;;2.53;;
8540;SDS011;4308;51.294;6.590;2023-02-25T01:14:34;17.53;;;3.13;;
8540;SDS011;4308;51.294;6.590;2023-02-25T01:17:01;12.43;;;2.63;;
8540;SDS011;4308;51.294;6.590;2023-02-25T01:19:29;9.50;;;3.03;;
8540;SDS011;4308;51.294;6.590;2023-02-25T01:21:57;16.30;;;3.00;;
8540;SDS011;4308;51.294;6.590;2023-02-25T01:24:26;10.37;;;3.53;;
8540;SDS011;4308;51.294;6.590;2023-02-25T01:26:55;15.10;;;2.33;;
8540;SDS011;4308;51.294;6.590;2023-02-25T01:29:27;10.17;;;2.47;;
8540;SDS011;4308;51.294;6.590;2023-02-25T01:31:55;12.43;;;2.67;;
8540;SDS011;4308;51.294;6.590;2023-02-25T01:34:23;11.53;;;2.80;;
8540;SDS011;4308;51.294;6.590;2023-02-25T01:36:51;13.20;;;2.80;;
8540;SDS011;4308;51.294;6.590;2023-02-25T01:39:19;10.13;;;2.87;;
8540;SDS011;4308;51.294;6.590;2023-02-25T01:41:47;18.40;;;4.17;;
8540;SDS011;4308;51.294;6.590;2023-02-25T01:46:52;11.73;;;3.40;;
8540;SDS011;4308;51.294;6.590;2023-02-25T01:51:55;9.83;;;2.27;;
8540;SDS011;4308;51.294;6.590;2023-02-25T01:54:24;15.10;;;3.43;;
8540;SDS011;4308;51.294;6.590;2023-02-25T01:56:52;13.93;;;3.23;;
8540;SDS011;4308;51.294;6.590;2023-02-25T01:59:22;18.53;;;4.30;;
8540;SDS011;4308;51.294;6.590;2023-02-25T02:01:49;12.97;;;2.50;;
8540;SDS011;4308;51.294;6.590;2023-02-25T02:04:17;15.47;;;2.57;;
8540;SDS011;4308;51.294;6.590;2023-02-25T02:06:46;16.70;;;3.03;;
8540;SDS011;4308;51.294;6.590;2023-02-25T02:09:19;19.10;;;3.20;;
8540;SDS011;4308;51.294;6.590;2023-02-25T02:11:47;9.77;;;3.20;;
8540;SDS011;4308;51.294;6.590;2023-02-25T02:14:19;14.10;;;3.07;;
8540;SDS011;4308;51.294;6.590;2023-02-25T02:16:56;11.47;;;2.33;;
8540;SDS011;4308;51.294;6.590;2023-02-25T02:22:02;14.00;;;2.93;;
8540;SDS011;4308;51.294;6.590;2023-02-25T02:27:57;17.17;;;4.03;;
8540;SDS011;4308;51.294;6.590;2023-02-25T02:30:16;13.70;;;3.77;;
8540;SDS011;4308;51.294;6.590;2023-02-25T02:35:46;14.00;;;3.47;;
8540;SDS011;4308;51.294;6.590;2023-02-25T02:38:20;18.23;;;3.50;;
8540;SDS011;4308;51.294;6.590;2023-02-25T02:41:33;15.63;;;3.03;;
8540;SDS011;4308;51.294;6.590;2023-02-25T02:43:43;14.13;;;2.73;;
8540;SDS011;4308;51.294;6.590;2023-02-25T02:46:17;18.17;;;3.50;;
8540;SDS011;4308;51.294;6.590;2023-02-25T02:49:05;10.10;;;2.90;;
8540;SDS011;4308;51.294;6.590;2023-02-25T02:51:40;10.67;;;3.50;;
8540;SDS011;4308;51.294;6.590;2023-02-25T02:54:10;11.63;;;2.93;;
8540;SDS011;4308;51.294;6.590;2023-02-25T02:56:38;13.70;;;3.20;;
8540;SDS011;4308;51.294;6.590;2023-02-25T02:59:14;13.83;;;4.00;;
8540;SDS011;4308;51.294;6.590;2023-02-25T03:01:45;15.07;;;3.60;;
8540;SDS011;4308;51.294;6.590;2023-02-25T03:04:14;18.00;;;4.10;;
8540;SDS011;4308;51.294;6.590;2023-02-25T03:06:44;11.93;;;3.10;;
8540;SDS011;4308;51.294;6.590;2023-02-25T03:09:17;17.00;;;4.83;;
8540;SDS011;4308;51.294;6.590;2023-02-25T03:11:46;16.57;;;4.50;;
8540;SDS011;4308;51.294;6.590;2023-02-25T03:14:13;8.70;;;2.90;;
8540;SDS011;4308;51.294;6.590;2023-02-25T03:16:53;16.50;;;3.30;;
8540;SDS011;4308;51.294;6.590;2023-02-25T03:19:24;11.13;;;2.20;;
8540;SDS011;4308;51.294;6.590;2023-02-25T03:21:55;12.50;;;2.43;;
8540;SDS011;4308;51.294;6.590;2023-02-25T03:24:29;13.27;;;3.20;;
8540;SDS011;4308;51.294;6.590;2023-02-25T03:26:58;9.33;;;2.50;;
8540;SDS011;4308;51.294;6.590;2023-02-25T03:29:26;9.37;;;3.07;;
8540;SDS011;4308;51.294;6.590;2023-02-25T03:32:12;13.03;;;3.90;;
8540;SDS011;4308;51.294;6.590;2023-02-25T03:34:46;10.27;;;2.43;;
8540;SDS011;4308;51.294;6.590;2023-02-25T03:37:20;15.23;;;2.77;;
8540;SDS011;4308;51.294;6.590;2023-02-25T03:39:49;16.87;;;2.90;;
8540;SDS011;4308;51.294;6.590;2023-02-25T03:42:19;12.43;;;3.00;;
8540;SDS011;4308;51.294;6.590;2023-02-25T03:44:49;12.57;;;2.53;;
8540;SDS011;4308;51.294;6.590;2023-02-25T03:47:17;10.50;;;2.30;;
8540;SDS011;4308;51.294;6.590;2023-02-25T03:52:19;9.13;;;2.83;;
8540;SDS011;4308;51.294;6.590;2023-02-25T03:54:49;14.17;;;2.60;;
8540;SDS011;4308;51.294;6.590;2023-02-25T03:57:18;15.23;;;3.80;;
8540;SDS011;4308;51.294;6.590;2023-02-25T03:59:45;13.77;;;2.70;;
8540;SDS011;4308;51.294;6.590;2023-02-25T04:02:13;9.87;;;2.60;;
8540;SDS011;4308;51.294;6.590;2023-02-25T04:04:42;17.90;;;3.23;;
8540;SDS011;4308;51.294;6.590;2023-02-25T04:07:09;11.40;;;2.67;;
8540;SDS011;4308;51.294;6.590;2023-02-25T04:09:37;9.27;;;2.53;;
8540;SDS011;4308;51.294;6.590;2023-02-25T04:12:05;14.17;;;2.77;;
8540;SDS011;4308;51.294;6.590;2023-02-25T04:14:32;13.40;;;2.63;;
8540;SDS011;4308;51.294;6.590;2023-02-25T04:17:00;15.83;;;2.83;;
8540;SDS011;4308;51.294;6.590;2023-02-25T04:19:27;9.73;;;2.83;;
8540;SDS011;4308;51.294;6.590;2023-02-25T04:21:55;19.07;;;2.60;;
8540;SDS011;4308;51.294;6.590;2023-02-25T04:24:22;16.90;;;2.63;;
8540;SDS011;4308;51.294;6.590;2023-02-25T04:26:50;15.20;;;2.50;;
8540;SDS011;4308;51.294;6.590;2023-02-25T04:29:17;14.07;;;2.23;;
8540;SDS011;4308;51.294;6.590;2023-02-25T04:31:45;11.43;;;2.60;;
8540;SDS011;4308;51.294;6.590;2023-02-25T04:34:13;11.67;;;2.37;;
8540;SDS011;4308;51.294;6.590;2023-02-25T04:36:40;18.47;;;3.27;;
8540;SDS011;4308;51.294;6.590;2023-02-25T04:39:08;22.93;;;2.53;;
8540;SDS011;4308;51.294;6.590;2023-02-25T04:41:36;14.47;;;3.60;;
8540;SDS011;4308;51.294;6.590;2023-02-25T04:44:05;8.20;;;2.70;;
8540;SDS011;4308;51.294;6.590;2023-02-25T04:46:33;12.43;;;2.30;;
8540;SDS011;4308;51.294;6.590;2023-02-25T04:49:01;13.07;;;2.33;;
8540;SDS011;4308;51.294;6.590;2023-02-25T04:51:29;14.43;;;2.67;;
8540;SDS011;4308;51.294;6.590;2023-02-25T04:53:57;17.20;;;2.67;;
8540;SDS011;4308;51.294;6.590;2023-02-25T04:56:24;12.03;;;2.90;;
8540;SDS011;4308;51.294;6.590;2023-02-25T04:58:52;14.67;;;2.60;;
8540;SDS011;4308;51.294;6.590;2023-02-25T05:01:19;17.97;;;2.70;;
8540;SDS011;4308;51.294;6.590;2023-02-25T05:03:47;14.27;;;3.00;;
8540;SDS011;4308;51.294;6.590;2023-02-25T05:06:15;13.50;;;3.00;;
8540;SDS011;4308;51.294;6.590;2023-02-25T05:08:42;19.57;;;3.20;;
8540;SDS011;4308;51.294;6.590;2023-02-25T05:11:10;10.33;;;2.33;;
8540;SDS011;4308;51.294;6.590;2023-02-25T05:13:37;15.63;;;2.73;;
8540;SDS011;4308;51.294;6.590;2023-02-25T05:16:06;12.77;;;3.00;;
8540;SDS011;4308;51.294;6.590;2023-02-25T05:21:51;18.47;;;3.17;;
8540;SDS011;4308;51.294;6.590;2023-02-25T05:24:19;23.10;;;2.90;;
8540;SDS011;4308;51.294;6.590;2023-02-25T05:26:48;15.70;;;2.90;;
8540;SDS011;4308;51.294;6.590;2023-02-25T05:29:15;13.03;;;2.80;;
8540;SDS011;4308;51.294;6.590;2023-02-25T05:31:43;11.77;;;3.07;;
8540;SDS011;4308;51.294;6.590;2023-02-25T05:34:11;17.00;;;2.23;;
8540;SDS011;4308;51.294;6.590;2023-02-25T05:36:38;13.17;;;3.03;;
8540;SDS011;4308;51.294;6.590;2023-02-25T05:39:06;11.77;;;2.77;;
8540;SDS011;4308;51.294;6.590;2023-02-25T05:41:34;11.37;;;2.50;;
8540;SDS011;4308;51.294;6.590;2023-02-25T05:44:08;13.40;;;3.03;;
8540;SDS011;4308;51.294;6.590;2023-02-25T05:46:36;18.47;;;3.27;;
8540;SDS011;4308;51.294;6.590;2023-02-25T05:49:04;9.80;;;2.57;;
8540;SDS011;4308;51.294;6.590;2023-02-25T05:51:32;13.33;;;2.50;;
8540;SDS011;4308;51.294;6.590;2023-02-25T05:54:00;11.20;;;2.93;;
8540;SDS011;4308;51.294;6.590;2023-02-25T05:56:27;13.77;;;3.60;;
8540;SDS011;4308;51.294;6.590;2023-02-25T05:58:58;7.30;;;2.97;;
8540;SDS011;4308;51.294;6.590;2023-02-25T06:01:25;11.63;;;2.90;;
8540;SDS011;4308;51.294;6.590;2023-02-25T06:03:54;9.83;;;2.77;;
8540;SDS011;4308;51.294;6.590;2023-02-25T06:06:21;17.23;;;3.10;;
8540;SDS011;4308;51.294;6.590;2023-02-25T06:08:50;11.37;;;2.43;;
8540;SDS011;4308;51.294;6.590;2023-02-25T06:11:19;12.87;;;2.77;;
8540;SDS011;4308;51.294;6.590;2023-02-25T06:13:48;11.73;;;2.90;;
8540;SDS011;4308;51.294;6.590;2023-02-25T06:16:16;15.40;;;3.03;;
8540;SDS011;4308;51.294;6.590;2023-02-25T06:18:45;12.47;;;2.80;;
8540;SDS011;4308;51.294;6.590;2023-02-25T06:21:13;15.40;;;2.90;;
8540;SDS011;4308;51.294;6.590;2023-02-25T06:23:41;9.60;;;3.10;;
8540;SDS011;4308;51.294;6.590;2023-02-25T06:26:10;15.27;;;2.97;;
8540;SDS011;4308;51.294;6.590;2023-02-25T06:28:38;13.77;;;3.33;;
8540;SDS011;4308;51.294;6.590;2023-02-25T06:31:07;12.33;;;3.13;;
8540;SDS011;4308;51.294;6.590;2023-02-25T06:33:35;11.43;;;2.77;;
8540;SDS011;4308;51.294;6.590;2023-02-25T06:36:03;9.83;;;2.73;;
8540;SDS011;4308;51.294;6.590;2023-02-25T06:38:32;10.93;;;2.83;;
8540;SDS011;4308;51.294;6.590;2023-02-25T06:41:03;14.30;;;2.93;;
8540;SDS011;4308;51.294;6.590;2023-02-25T06:43:31;8.70;;;2.53;;
8540;SDS011;4308;51.294;6.590;2023-02-25T06:46:02;12.43;;;2.57;;
8540;SDS011;4308;51.294;6.590;2023-02-25T06:48:29;13.87;;;3.40;;
8540;SDS011;4308;51.294;6.590;2023-02-25T06:50:57;16.30;;;2.70;;
8540;SDS011;4308;51.294;6.590;2023-02-25T06:53:24;14.07;;;4.17;;
8540;SDS011;4308;51.294;6.590;2023-02-25T06:55:52;11.67;;;2.83;;
8540;SDS011;4308;51.294;6.590;2023-02-25T06:58:20;14.40;;;3.17;;
8540;SDS011;4308;51.294;6.590;2023-02-25T07:00:47;14.57;;;3.23;;
8540;SDS011;4308;51.294;6.590;2023-02-25T07:03:15;16.47;;;2.77;;
8540;SDS011;4308;51.294;6.590;2023-02-25T07:05:42;15.27;;;3.47;;
8540;SDS011;4308;51.294;6.590;2023-02-25T07:08:10;22.07;;;3.77;;
8540;SDS011;4308;51.294;6.590;2023-02-25T07:10:37;16.90;;;3.50;;
8540;SDS011;4308;51.294;6.590;2023-02-25T07:13:06;16.57;;;2.87;;
8540;SDS011;4308;51.294;6.590;2023-02-25T07:15:33;22.33;;;3.60;;
8540;SDS011;4308;51.294;6.590;2023-02-25T07:18:02;10.97;;;2.50;;
8540;SDS011;4308;51.294;6.590;2023-02-25T07:20:29;17.93;;;3.90;;
8540;SDS011;4308;51.294;6.590;2023-02-25T07:22:57;10.93;;;3.07;;
8540;SDS011;4308;51.294;6.590;2023-02-25T07:25:24;14.77;;;2.63;;
8540;SDS011;4308;51.294;6.590;2023-02-25T07:27:52;14.77;;;3.53;;
8540;SDS011;4308;51.294;6.590;2023-02-25T07:30:20;13.67;;;3.13;;
8540;SDS011;4308;51.294;6.590;2023-02-25T07:32:47;14.90;;;2.93;;
8540;SDS011;4308;51.294;6.590;2023-02-25T07:35:15;13.30;;;3.40;;
8540;SDS011;4308;51.294;6.590;2023-02-25T07:37:42;11.03;;;2.60;;
8540;SDS011;4308;51.294;6.590;2023-02-25T07:40:10;11.97;;;3.57;;
8540;SDS011;4308;51.294;6.590;2023-02-25T07:42:41;13.47;;;3.87;;
8540;SDS011;4308;51.294;6.590;2023-02-25T07:45:09;15.07;;;4.13;;
8540;SDS011;4308;51.294;6.590;2023-02-25T07:47:37;13.00;;;3.50;;
8540;SDS011;4308;51.294;6.590;2023-02-25T07:50:05;18.93;;;3.60;;
8540;SDS011;4308;51.294;6.590;2023-02-25T07:52:33;18.47;;;3.73;;
8540;SDS011;4308;51.294;6.590;2023-02-25T07:55:01;13.90;;;3.60;;
8540;SDS011;4308;51.294;6.590;2023-02-25T07:57:29;16.90;;;3.17;;
8540;SDS011;4308;51.294;6.590;2023-02-25T07:59:56;18.30;;;3.97;;
8540;SDS011;4308;51.294;6.590;2023-02-25T08:02:24;18.33;;;3.60;;
8540;SDS011;4308;51.294;6.590;2023-02-25T08:04:52;21.20;;;3.77;;
8540;SDS011;4308;51.294;6.590;2023-02-25T08:07:20;11.03;;;3.07;;
8540;SDS011;4308;51.294;6.590;2023-02-25T08:09:48;10.33;;;2.20;;
8540;SDS011;4308;51.294;6.590;2023-02-25T08:12:16;8.80;;;2.70;;
8540;SDS011;4308;51.294;6.590;2023-02-25T08:14:45;11.73;;;2.67;;
8540;SDS011;4308;51.294;6.590;2023-02-25T08:17:13;14.03;;;3.13;;
8540;SDS011;4308;51.294;6.590;2023-02-25T08:19:40;11.67;;;2.60;;
8540;SDS011;4308;51.294;6.590;2023-02-25T08:22:08;12.60;;;2.47;;
8540;SDS011;4308;51.294;6.590;2023-02-25T08:24:36;11.77;;;3.33;;
8540;SDS011;4308;51.294;6.590;2023-02-25T08:27:04;12.47;;;3.17;;
8540;SDS011;4308;51.294;6.590;2023-02-25T08:29:32;14.27;;;3.47;;
8540;SDS011;4308;51.294;6.590;2023-02-25T08:31:59;8.23;;;2.17;;
8540;SDS011;4308;51.294;6.590;2023-02-25T08:34:27;14.00;;;2.63;;
8540;SDS011;4308;51.294;6.590;2023-02-25T08:36:55;14.57;;;2.70;;
8540;SDS011;4308;51.294;6.590;2023-02-25T08:39:22;15.30;;;2.83;;
8540;SDS011;4308;51.294;6.590;2023-02-25T08:41:50;6.50;;;1.90;;
8540;SDS011;4308;51.294;6.590;2023-02-25T08:44:17;21.30;;;3.67;;
8540;SDS011;4308;51.294;6.590;2023-02-25T08:46:45;17.33;;;4.07;;
8540;SDS011;4308;51.294;6.590;2023-02-25T08:49:13;15.23;;;3.20;;
8540;SDS011;4308;51.294;6.590;2023-02-25T08:51:40;13.43;;;2.10;;
8540;SDS011;4308;51.294;6.590;2023-02-25T08:54:10;15.17;;;2.87;;
8540;SDS011;4308;51.294;6.590;2023-02-25T08:56:38;11.40;;;2.77;;
8540;SDS011;4308;51.294;6.590;2023-02-25T08:59:06;17.73;;;2.70;;
8540;SDS011;4308;51.294;6.590;2023-02-25T09:01:33;15.23;;;3.50;;
8540;SDS011;4308;51.294;6.590;2023-02-25T09:04:01;13.23;;;2.87;;
8540;SDS011;4308;51.294;6.590;2023-02-25T09:06:29;15.90;;;3.67;;
8540;SDS011;4308;51.294;6.590;2023-02-25T09:08:56;19.10;;;3.97;;
8540;SDS011;4308;51.294;6.590;2023-02-25T09:11:24;12.37;;;2.57;;
8540;SDS011;4308;51.294;6.590;2023-02-25T09:13:52;12.27;;;2.70;;
8540;SDS011;4308;51.294;6.590;2023-02-25T09:16:20;13.97;;;3.60;;
8540;SDS011;4308;51.294;6.590;2023-02-25T09:18:48;12.57;;;2.57;;
8540;SDS011;4308;51.294;6.590;2023-02-25T09:21:16;16.03;;;2.27;;
8540;SDS011;4308;51.294;6.590;2023-02-25T09:23:44;11.17;;;2.20;;
8540;SDS011;4308;51.294;6.590;2023-02-25T09:26:12;12.97;;;2.60;;
8540;SDS011;4308;51.294;6.590;2023-02-25T09:28:40;13.90;;;2.97;;
8540;SDS011;4308;51.294;6.590;2023-02-25T09:31:08;16.67;;;2.80;;
8540;SDS011;4308;51.294;6.590;2023-02-25T09:33:36;9.83;;;2.53;;
8540;SDS011;4308;51.294;6.590;2023-02-25T09:36:08;14.33;;;3.40;;
8540;SDS011;4308;51.294;6.590;2023-02-25T09:38:36;10.83;;;2.77;;
8540;SDS011;4308;51.294;6.590;2023-02-25T09:46:46;14.80;;;3.30;;
8540;SDS011;4308;51.294;6.590;2023-02-25T09:51:51;12.90;;;2.50;;
8540;SDS011;4308;51.294;6.590;2023-02-25T09:54:24;13.23;;;2.27;;
8540;SDS011;4308;51.294;6.590;2023-02-25T09:56:53;13.63;;;2.43;;
8540;SDS011;4308;51.294;6.590;2023-02-25T09:59:21;10.80;;;2.43;;
8540;SDS011;4308;51.294;6.590;2023-02-25T10:01:59;10.63;;;2.10;;
8540;SDS011;4308;51.294;6.590;2023-02-25T10:07:17;6.87;;;1.10;;
8540;SDS011;4308;51.294;6.590;2023-02-25T10:09:52;6.93;;;1.90;;
8540;SDS011;4308;51.294;6.590;2023-02-25T10:25:27;7.67;;;1.83;;
8540;SDS011;4308;51.294;6.590;2023-02-25T10:27:58;10.00;;;2.23;;
8540;SDS011;4308;51.294;6.590;2023-02-25T10:30:27;6.87;;;2.00;;
8540;SDS011;4308;51.294;6.590;2023-02-25T10:32:58;9.03;;;1.60;;
8540;SDS011;4308;51.294;6.590;2023-02-25T10:35:27;11.10;;;2.27;;
8540;SDS011;4308;51.294;6.590;2023-02-25T10:37:55;3.10;;;1.57;;
8540;SDS011;4308;51.294;6.590;2023-02-25T10:40:23;6.20;;;1.73;;
8540;SDS011;4308;51.294;6.590;2023-02-25T10:42:52;6.43;;;1.93;;
8540;SDS011;4308;51.294;6.590;2023-02-25T10:45:27;10.97;;;1.50;;
8540;SDS011;4308;51.294;6.590;2023-02-25T10:50:41;8.77;;;2.23;;
8540;SDS011;4308;51.294;6.590;2023-02-25T10:53:15;11.00;;;4.33;;
8540;SDS011;4308;51.294;6.590;2023-02-25T10:55:44;9.97;;;5.83;;
8540;SDS011;4308;51.294;6.590;2023-02-25T11:03:32;11.30;;;5.00;;
8540;SDS011;4308;51.294;6.590;2023-02-25T11:06:07;9.97;;;5.37;;
8540;SDS011;4308;51.294;6.590;2023-02-25T11:08:34;7.17;;;3.07;;
8540;SDS011;4308;51.294;6.590;2023-02-25T11:11:03;6.17;;;1.40;;
8540;SDS011;4308;51.294;6.590;2023-02-25T11:13:33;7.00;;;1.50;;
8540;SDS011;4308;51.294;6.590;2023-02-25T11:16:05;4.97;;;2.10;;
8540;SDS011;4308;51.294;6.590;2023-02-25T11:18:33;6.60;;;1.60;;
8540;SDS011;4308;51.294;6.590;2023-02-25T11:21:03;4.83;;;2.23;;
8540;SDS011;4308;51.294;6.590;2023-02-25T11:23:35;3.87;;;1.80;;
8540;SDS011;4308;51.294;6.590;2023-02-25T11:26:04;5.07;;;1.80;;
8540;SDS011;4308;51.294;6.590;2023-02-25T11:28:35;6.90;;;1.73;;
8540;SDS011;4308;51.294;6.590;2023-02-25T11:31:09;5.53;;;1.40;;
8540;SDS011;4308;51.294;6.590;2023-02-25T11:33:39;3.73;;;1.50;;
8540;SDS011;4308;51.294;6.590;2023-02-25T11:36:09;4.83;;;1.70;;
8540;SDS011;4308;51.294;6.590;2023-02-25T11:38:38;8.40;;;1.20;;
8540;SDS011;4308;51.294;6.590;2023-02-25T11:41:14;3.60;;;1.20;;
8540;SDS011;4308;51.294;6.590;2023-02-25T11:43:51;2.93;;;1.10;;
8540;SDS011;4308;51.294;6.590;2023-02-25T11:46:20;3.33;;;1.27;;
8540;SDS011;4308;51.294;6.590;2023-02-25T11:49:12;4.47;;;1.60;;
8540;SDS011;4308;51.294;6.590;2023-02-25T11:51:54;3.30;;;1.53;;
8540;SDS011;4308;51.294;6.590;2023-02-25T11:59:51;4.83;;;1.70;;
8540;SDS011;4308;51.294;6.590;2023-02-25T12:02:26;8.97;;;2.33;;
8540;SDS011;4308;51.294;6.590;2023-02-25T12:10:49;3.90;;;1.60;;
8540;SDS011;4308;51.294;6.590;2023-02-25T12:24:31;7.03;;;1.83;;
8540;SDS011;4308;51.294;6.590;2023-02-25T12:42:53;3.27;;;1.40;;
8540;SDS011;4308;51.294;6.590;2023-02-25T12:45:31;5.73;;;1.50;;
8540;SDS011;4308;51.294;6.590;2023-02-25T12:58:33;9.47;;;1.90;;
8540;SDS011;4308;51.294;6.590;2023-02-25T13:07:07;7.13;;;1.60;;
8540;SDS011;4308;51.294;6.590;2023-02-25T13:17:26;2.63;;;1.40;;
8540;SDS011;4308;51.294;6.590;2023-02-25T13:22:39;6.43;;;1.87;;
8540;SDS011;4308;51.294;6.590;2023-02-25T13:25:18;3.73;;;1.37;;
8540;SDS011;4308;51.294;6.590;2023-02-25T13:33:09;5.50;;;1.80;;
8540;SDS011;4308;51.294;6.590;2023-02-25T13:44:01;3.37;;;1.20;;
8540;SDS011;4308;51.294;6.590;2023-02-25T13:52:16;2.93;;;1.50;;
8540;SDS011;4308;51.294;6.590;2023-02-25T14:07:28;6.83;;;1.23;;
8540;SDS011;4308;51.294;6.590;2023-02-25T14:10:00;2.87;;;0.80;;
8540;SDS011;4308;51.294;6.590;2023-02-25T14:17:51;5.53;;;1.43;;
8540;SDS011;4308;51.294;6.590;2023-02-25T14:22:50;3.33;;;1.00;;
8540;SDS011;4308;51.294;6.590;2023-02-25T14:25:21;2.60;;;1.03;;
8540;SDS011;4308;51.294;6.590;2023-02-25T14:28:14;4.87;;;1.40;;
8540;SDS011;4308;51.294;6.590;2023-02-25T14:30:53;2.43;;;1.30;;
8540;SDS011;4308;51.294;6.590;2023-02-25T14:43:47;4.57;;;1.33;;
8540;SDS011;4308;51.294;6.590;2023-02-25T15:12:53;1.83;;;1.23;;
8540;SDS011;4308;51.294;6.590;2023-02-25T15:20:46;5.90;;;1.20;;
8540;SDS011;4308;51.294;6.590;2023-02-25T15:23:17;1.67;;;1.30;;
8540;SDS011;4308;51.294;6.590;2023-02-25T15:25:46;3.03;;;1.60;;
8540;SDS011;4308;51.294;6.590;2023-02-25T15:38:49;2.90;;;1.20;;
8540;SDS011;4308;51.294;6.590;2023-02-25T15:43:57;4.23;;;1.30;;
8540;SDS011;4308;51.294;6.590;2023-02-25T15:51:42;2.43;;;1.17;;
8540;SDS011;4308;51.294;6.590;2023-02-25T15:54:44;2.10;;;1.40;;
8540;SDS011;4308;51.294;6.590;2023-02-25T15:56:59;3.13;;;0.90;;
8540;SDS011;4308;51.294;6.590;2023-02-25T16:07:30;4.37;;;1.83;;
8540;SDS011;4308;51.294;6.590;2023-02-25T16:10:00;3.63;;;1.23;;
8540;SDS011;4308;51.294;6.590;2023-02-25T16:12:29;5.87;;;2.57;;
8540;SDS011;4308;51.294;6.590;2023-02-25T16:14:57;1.93;;;1.10;;
8540;SDS011;4308;51.294;6.590;2023-02-25T16:17:31;0.87;;;0.80;;
8540;SDS011;4308;51.294;6.590;2023-02-25T16:20:46;2.43;;;1.43;;
8540;SDS011;4308;51.294;6.590;2023-02-25T16:22:48;2.50;;;0.93;;
8540;SDS011;4308;51.294;6.590;2023-02-25T16:25:20;2.67;;;1.30;;
8540;SDS011;4308;51.294;6.590;2023-02-25T16:27:53;1.53;;;0.87;;
8540;SDS011;4308;51.294;6.590;2023-02-25T16:30:26;1.53;;;1.10;;
8540;SDS011;4308;51.294;6.590;2023-02-25T16:35:29;4.53;;;1.07;;
8540;SDS011;4308;51.294;6.590;2023-02-25T16:40:34;6.00;;;1.43;;
8540;SDS011;4308;51.294;6.590;2023-02-25T16:43:02;2.67;;;1.47;;
8540;SDS011;4308;51.294;6.590;2023-02-25T16:45:34;3.80;;;1.17;;
8540;SDS011;4308;51.294;6.590;2023-02-25T16:48:04;4.87;;;1.40;;
8540;SDS011;4308;51.294;6.590;2023-02-25T16:50:33;4.57;;;1.47;;
8540;SDS011;4308;51.294;6.590;2023-02-25T16:53:02;4.00;;;1.23;;
8540;SDS011;4308;51.294;6.590;2023-02-25T16:55:34;2.57;;;1.30;;
8540;SDS011;4308;51.294;6.590;2023-02-25T17:00:32;3.33;;;1.47;;
8540;SDS011;4308;51.294;6.590;2023-02-25T17:03:00;3.00;;;1.47;;
8540;SDS011;4308;51.294;6.590;2023-02-25T17:05:33;2.57;;;1.40;;
8540;SDS011;4308;51.294;6.590;2023-02-25T17:08:02;3.77;;;1.90;;
8540;SDS011;4308;51.294;6.590;2023-02-25T17:10:32;4.47;;;1.70;;
8540;SDS011;4308;51.294;6.590;2023-02-25T17:13:01;7.60;;;1.57;;
8540;SDS011;4308;51.294;6.590;2023-02-25T17:15:33;4.80;;;1.60;;
8540;SDS011;4308;51.294;6.590;2023-02-25T17:18:06;4.07;;;1.30;;
8540;SDS011;4308;51.294;6.590;2023-02-25T17:20:35;4.10;;;1.77;;
8540;SDS011;4308;51.294;6.590;2023-02-25T17:23:04;1.47;;;1.20;;
8540;SDS011;4308;51.294;6.590;2023-02-25T17:25:35;4.83;;;1.83;;
8540;SDS011;4308;51.294;6.590;2023-02-25T17:28:04;3.63;;;1.40;;
8540;SDS011;4308;51.294;6.590;2023-02-25T17:33:00;2.87;;;1.10;;
8540;SDS011;4308;51.294;6.590;2023-02-25T17:35:28;3.70;;;1.70;;
8540;SDS011;4308;51.294;6.590;2023-02-25T17:37:55;1.77;;;1.30;;
8540;SDS011;4308;51.294;6.590;2023-02-25T17:40:25;1.50;;;1.13;;
8540;SDS011;4308;51.294;6.590;2023-02-25T17:45:40;6.33;;;1.77;;
8540;SDS011;4308;51.294;6.590;2023-02-25T17:48:13;5.70;;;2.10;;
8540;SDS011;4308;51.294;6.590;2023-02-25T17:50:41;3.03;;;1.20;;
8540;SDS011;4308;51.294;6.590;2023-02-25T17:53:18;4.00;;;1.53;;
8540;SDS011;4308;51.294;6.590;2023-02-25T17:55:50;1.93;;;1.23;;
8540;SDS011;4308;51.294;6.590;2023-02-25T17:58:20;1.80;;;1.13;;
8540;SDS011;4308;51.294;6.590;2023-02-25T18:00:58;4.03;;;1.60;;
8540;SDS011;4308;51.294;6.590;2023-02-25T18:03:26;2.13;;;1.60;;
8540;SDS011;4308;51.294;6.590;2023-02-25T18:05:57;2.53;;;1.00;;
8540;SDS011;4308;51.294;6.590;2023-02-25T18:08:29;2.53;;;1.37;;
8540;SDS011;4308;51.294;6.590;2023-02-25T18:11:04;3.03;;;1.37;;
8540;SDS011;4308;51.294;6.590;2023-02-25T18:13:47;2.77;;;1.30;;
8540;SDS011;4308;51.294;6.590;2023-02-25T18:18:54;4.27;;;1.97;;
8540;SDS011;4308;51.294;6.590;2023-02-25T18:21:23;5.37;;;1.60;;
8540;SDS011;4308;51.294;6.590;2023-02-25T18:23:51;4.90;;;1.70;;
8540;SDS011;4308;51.294;6.590;2023-02-25T18:26:22;2.37;;;1.30;;
8540;SDS011;4308;51.294;6.590;2023-02-25T18:28:51;3.27;;;1.53;;
8540;SDS011;4308;51.294;6.590;2023-02-25T18:31:19;4.03;;;1.73;;
8540;SDS011;4308;51.294;6.590;2023-02-25T18:33:46;7.03;;;1.50;;
8540;SDS011;4308;51.294;6.590;2023-02-25T18:36:21;4.57;;;2.00;;
8540;SDS011;4308;51.294;6.590;2023-02-25T18:38:51;5.77;;;1.97;;
8540;SDS011;4308;51.294;6.590;2023-02-25T18:41:19;2.10;;;0.93;;
8540;SDS011;4308;51.294;6.590;2023-02-25T18:43:46;3.57;;;1.70;;
8540;SDS011;4308;51.294;6.590;2023-02-25T18:46:14;5.70;;;1.80;;
8540;SDS011;4308;51.294;6.590;2023-02-25T18:48:41;7.50;;;2.43;;
8540;SDS011;4308;51.294;6.590;2023-02-25T18:51:10;5.73;;;1.70;;
8540;SDS011;4308;51.294;6.590;2023-02-25T18:53:38;7.87;;;1.63;;
8540;SDS011;4308;51.294;6.590;2023-02-25T18:56:06;5.17;;;2.30;;
8540;SDS011;4308;51.294;6.590;2023-02-25T18:58:34;4.20;;;2.10;;
8540;SDS011;4308;51.294;6.590;2023-02-25T19:01:01;2.23;;;1.73;;
8540;SDS011;4308;51.294;6.590;2023-02-25T19:05:57;6.23;;;2.40;;
8540;SDS011;4308;51.294;6.590;2023-02-25T19:08:24;6.90;;;2.33;;
8540;SDS011;4308;51.294;6.590;2023-02-25T19:10:52;5.73;;;2.10;;
8540;SDS011;4308;51.294;6.590;2023-02-25T19:13:22;9.23;;;2.23;;
8540;SDS011;4308;51.294;6.590;2023-02-25T19:15:52;5.67;;;2.20;;
8540;SDS011;4308;51.294;6.590;2023-02-25T19:18:20;3.07;;;2.00;;
8540;SDS011;4308;51.294;6.590;2023-02-25T19:20:47;7.77;;;2.50;;
8540;SDS011;4308;51.294;6.590;2023-02-25T19:23:15;3.37;;;2.17;;
8540;SDS011;4308;51.294;6.590;2023-02-25T19:25:43;5.03;;;2.50;;